Time;durP1;ratioP1;P1;durP2;ratioP2;P2;SDS_P1;SDS_P2;PMS_P1;PMS_P2;Temp;Humidity;BMP_temperature;BMP_pressure;BME280_temperature;BME280_humidity;BME280_pressure;Samples;Min_cycle;Max_cycle;Signal;HPM_P1;HPM_P2
2023/08/03 00:00:23;;;;;;;3.00;1.70;;;;;;;14.93;100.00;98928.88;4993851;28;20026;-77
2023/08/03 00:02:49;;;;;;;4.65;2.00;;;;;;;15.03;100.00;98938.25;4993662;28;20395;-81
2023/08/03 00:05:19;;;;;;;4.82;2.55;;;;;;;15.14;100.00;98962.09;4993783;28;20430;-79
2023/08/03 00:07:45;;;;;;;5.32;2.40;;;;;;;15.17;100.00;98959.13;4993494;28;20023;-78
2023/08/03 00:10:11;;;;;;;7.85;3.45;;;;;;;15.21;100.00;98957.81;4993547;28;20490;-78
2023/08/03 00:12:36;;;;;;;4.97;2.65;;;;;;;15.28;100.00;98964.94;4976383;28;20026;-79
2023/08/03 00:15:02;;;;;;;7.53;2.90;;;;;;;15.29;100.00;98971.75;4993003;28;20464;-78
2023/08/03 00:17:27;;;;;;;5.18;2.95;;;;;;;15.12;100.00;98942.41;4993383;28;20030;-80
2023/08/03 00:19:53;;;;;;;5.28;2.85;;;;;;;14.98;100.00;98920.56;4993613;28;20027;-80
2023/08/03 00:22:18;;;;;;;5.50;3.10;;;;;;;15.24;100.00;98968.84;4993285;28;20030;-78
2023/08/03 00:24:44;;;;;;;6.07;3.28;;;;;;;15.26;100.00;98979.91;4993343;28;20038;-78
2023/08/03 00:27:09;;;;;;;7.43;3.78;;;;;;;15.23;100.00;98972.41;4991760;28;20053;-78
2023/08/03 00:29:34;;;;;;;7.32;4.22;;;;;;;15.23;100.00;98981.03;4993465;28;20081;-78
2023/08/03 00:32:00;;;;;;;8.02;4.45;;;;;;;15.25;100.00;98983.47;4993332;28;20070;-78
2023/08/03 00:34:26;;;;;;;10.10;5.10;;;;;;;15.28;100.00;98990.94;4993382;28;20945;-78
2023/08/03 00:36:51;;;;;;;9.43;5.18;;;;;;;15.20;100.00;98973.56;4993047;28;20439;-78
2023/08/03 00:39:17;;;;;;;12.05;5.72;;;;;;;15.32;100.00;98992.19;4992997;28;20121;-80
2023/08/03 00:41:42;;;;;;;12.18;6.15;;;;;;;15.36;100.00;99004.69;4993081;28;20023;-76
2023/08/03 00:44:07;;;;;;;10.68;6.57;;;;;;;15.12;100.00;98971.81;4991322;28;20117;-79
2023/08/03 00:46:33;;;;;;;10.85;6.22;;;;;;;15.42;100.00;99019.59;4993168;28;20037;-78
2023/08/03 00:48:58;;;;;;;10.73;6.45;;;;;;;15.35;100.00;99012.69;4993277;28;20034;-78
2023/08/03 00:51:24;;;;;;;10.70;6.35;;;;;;;15.43;100.00;99020.41;4992900;28;20022;-79
2023/08/03 00:53:49;;;;;;;10.10;6.75;;;;;;;15.40;100.00;99012.97;4975557;28;20038;-79
2023/08/03 00:56:16;;;;;;;10.55;6.97;;;;;;;15.50;100.00;99031.75;4993019;28;20029;-79
2023/08/03 00:58:41;;;;;;;11.43;7.63;;;;;;;15.50;100.00;99037.78;4992987;28;20130;-79
2023/08/03 01:01:07;;;;;;;12.85;7.70;;;;;;;15.52;100.00;99041.97;4992899;28;20103;-77
2023/08/03 01:03:32;;;;;;;11.82;7.15;;;;;;;15.47;100.00;99040.72;4993161;28;20106;-79
2023/08/03 01:05:58;;;;;;;10.48;6.40;;;;;;;15.49;100.00;99043.97;4992934;28;20034;-80
2023/08/03 01:08:24;;;;;;;8.90;5.85;;;;;;;15.54;100.00;99050.44;4992932;28;20045;-83
2023/08/03 01:10:50;;;;;;;9.23;6.65;;;;;;;15.40;100.00;99033.78;4992913;28;20022;-83
2023/08/03 01:13:16;;;;;;;9.82;6.95;;;;;;;15.44;100.00;99043.69;4992544;28;20033;-80
2023/08/03 01:15:41;;;;;;;10.75;7.20;;;;;;;15.55;100.00;99070.28;4992732;28;20068;-82
2023/08/03 01:18:06;;;;;;;11.40;7.85;;;;;;;15.39;100.00;99045.16;4974911;28;20046;-83
2023/08/03 01:20:36;;;;;;;12.25;8.60;;;;;;;15.47;100.00;99058.94;4992824;28;20019;-83
2023/08/03 01:23:04;;;;;;;13.05;9.77;;;;;;;15.54;100.00;99066.88;4992610;28;20479;-83
2023/08/03 01:25:31;;;;;;;10.73;8.98;;;;;;;15.43;100.00;99056.81;4992771;28;20029;-82
2023/08/03 01:27:56;;;;;;;11.77;9.27;;;;;;;15.60;100.00;99091.38;4996143;28;20030;-81
2023/08/03 01:30:21;;;;;;;14.57;10.18;;;;;;;15.46;100.00;99074.72;4996494;28;20482;-80
2023/08/03 01:32:47;;;;;;;9.10;7.03;;;;;;;15.36;100.00;99063.72;4976936;28;20495;-80
2023/08/03 01:35:12;;;;;;;9.10;5.57;;;;;;;15.35;100.00;99085.50;4996326;28;20026;-80
2023/08/03 01:37:38;;;;;;;8.93;5.78;;;;;;;15.32;100.00;99084.03;4995965;28;20045;-74
2023/08/03 01:40:04;;;;;;;8.10;6.15;;;;;;;15.28;100.00;99071.56;4996216;28;20046;-78
2023/08/03 01:42:30;;;;;;;13.18;9.00;;;;;;;15.41;100.00;99113.41;4996056;28;20033;-79
2023/08/03 01:44:56;;;;;;;15.23;11.35;;;;;;;15.44;100.00;99111.31;4996228;28;20120;-79
2023/08/03 01:47:21;;;;;;;15.27;12.40;;;;;;;15.47;100.00;99113.56;4996261;28;20034;-80
2023/08/03 01:49:47;;;;;;;16.85;12.18;;;;;;;15.51;100.00;99108.81;4996088;28;20089;-80
2023/08/03 01:52:12;;;;;;;16.40;12.07;;;;;;;15.47;100.00;99104.94;4995808;28;20030;-79
2023/08/03 01:54:37;;;;;;;15.73;13.27;;;;;;;15.55;100.00;99117.91;4996133;28;20110;-81
2023/08/03 01:57:03;;;;;;;15.80;12.95;;;;;;;15.38;100.00;99085.97;4995831;28;20034;-80
2023/08/03 01:59:28;;;;;;;18.90;12.10;;;;;;;15.57;100.00;99112.53;4995912;28;20408;-79
2023/08/03 02:01:53;;;;;;;14.73;11.52;;;;;;;15.58;100.00;99111.56;4995887;28;20034;-79
2023/08/03 02:04:19;;;;;;;15.32;11.02;;;;;;;15.46;100.00;99090.31;4995936;28;20129;-80
2023/08/03 02:06:49;;;;;;;14.00;10.57;;;;;;;15.50;100.00;99105.41;4995985;28;20387;-78
2023/08/03 02:09:14;;;;;;;15.50;10.38;;;;;;;15.55;100.00;99117.91;4995456;28;20057;-78
2023/08/03 02:11:40;;;;;;;12.93;8.98;;;;;;;15.58;100.00;99119.38;4995611;28;20022;-77
2023/08/03 02:14:05;;;;;;;8.90;7.55;;;;;;;15.30;100.00;99073.00;4995625;28;20431;-78
2023/08/03 02:16:32;;;;;;;11.38;7.18;;;;;;;15.49;100.00;99105.59;4995630;28;20030;-77
2023/08/03 02:18:57;;;;;;;9.65;6.57;;;;;;;15.41;100.00;99090.00;4995648;28;20029;-78
2023/08/03 02:21:22;;;;;;;10.05;5.75;;;;;;;15.53;100.00;99114.66;4995631;28;20392;-78
2023/08/03 02:23:48;;;;;;;9.85;5.20;;;;;;;15.47;100.00;99102.34;4995132;28;20022;-78
2023/08/03 02:26:14;;;;;;;8.68;5.13;;;;;;;15.54;100.00;99111.09;4995518;28;20077;-79
2023/08/03 02:28:39;;;;;;;7.30;4.75;;;;;;;15.44;100.00;99100.09;4995518;28;20427;-78
2023/08/03 02:31:04;;;;;;;9.48;4.63;;;;;;;15.54;100.00;99110.28;4995394;28;20022;-78
2023/08/03 02:33:30;;;;;;;9.68;4.68;;;;;;;15.44;100.00;99100.91;4995484;28;20022;-79
2023/08/03 02:35:55;;;;;;;9.40;4.13;;;;;;;15.53;100.00;99113.84;4995400;28;20034;-79
2023/08/03 02:38:21;;;;;;;13.93;5.13;;;;;;;15.38;100.00;99096.38;4992963;28;20065;-78
2023/08/03 02:40:46;;;;;;;14.25;5.65;;;;;;;15.35;100.00;99075.91;4994929;28;20126;-78
2023/08/03 02:43:11;;;;;;;13.50;5.53;;;;;;;15.52;100.00;99101.81;4973951;28;20066;-78
2023/08/03 02:45:37;;;;;;;14.38;5.78;;;;;;;15.45;100.00;99089.50;4991963;28;20519;-81
2023/08/03 02:48:02;;;;;;;17.00;6.00;;;;;;;15.43;100.00;99078.44;4995033;28;20041;-79
2023/08/03 02:50:28;;;;;;;13.93;6.13;;;;;;;15.49;100.00;99087.38;4994975;28;20050;-78
2023/08/03 02:52:53;;;;;;;17.15;6.03;;;;;;;15.38;100.00;99078.16;4994945;28;20085;-79
2023/08/03 02:55:18;;;;;;;17.33;6.47;;;;;;;15.40;100.00;99088.38;4994874;28;20034;-78
2023/08/03 02:57:44;;;;;;;18.08;6.38;;;;;;;15.40;100.00;99093.59;4994739;28;20038;-76
2023/08/03 03:00:10;;;;;;;17.30;6.07;;;;;;;15.36;100.00;99102.72;4977576;28;20027;-77
2023/08/03 03:02:36;;;;;;;20.20;6.30;;;;;;;15.23;100.00;99076.44;4977425;28;20027;-78
2023/08/03 03:05:01;;;;;;;15.57;5.95;;;;;;;15.23;100.00;99094.63;4994655;28;20057;-77
2023/08/03 03:07:27;;;;;;;18.38;6.47;;;;;;;15.12;100.00;99093.22;4994656;28;20022;-77
2023/08/03 03:09:52;;;;;;;16.23;6.50;;;;;;;14.85;100.00;99053.69;4994566;28;20449;-77
2023/08/03 03:12:17;;;;;;;18.38;6.28;;;;;;;14.97;100.00;99089.69;4994823;28;20018;-77
2023/08/03 03:14:43;;;;;;;17.90;6.57;;;;;;;14.80;100.00;99066.34;4993233;28;20033;-78
2023/08/03 03:17:08;;;;;;;18.98;6.80;;;;;;;15.00;100.00;99097.16;4994460;28;20026;-77
2023/08/03 03:19:34;;;;;;;17.35;6.38;;;;;;;14.99;100.00;99109.34;4993111;28;20388;-77
2023/08/03 03:21:59;;;;;;;18.42;7.50;;;;;;;15.04;100.00;99129.63;4994644;28;20189;-78
2023/08/03 03:24:24;;;;;;;16.70;6.63;;;;;;;14.91;100.00;99114.56;4994409;28;20029;-78
2023/08/03 03:26:50;;;;;;;15.98;6.75;;;;;;;15.07;100.00;99137.94;4994466;28;20088;-79
2023/08/03 03:29:15;;;;;;;14.35;6.20;;;;;;;15.09;100.00;99140.34;4994352;28;20022;-79
2023/08/03 03:31:40;;;;;;;14.77;6.15;;;;;;;15.12;100.00;99153.00;4994366;28;20030;-79
2023/08/03 03:34:06;;;;;;;15.80;5.88;;;;;;;14.99;100.00;99131.94;4994089;28;20022;-81
2023/08/03 03:36:31;;;;;;;11.57;4.95;;;;;;;15.10;100.00;99155.78;4994140;28;20088;-80
2023/08/03 03:38:57;;;;;;;10.65;4.88;;;;;;;15.02;100.00;99148.00;4994076;28;20567;-79
2023/08/03 03:41:22;;;;;;;12.25;4.88;;;;;;;15.08;100.00;99162.94;4993979;28;20026;-79
2023/08/03 03:43:47;;;;;;;11.75;5.38;;;;;;;15.13;100.00;99171.03;4994009;28;20037;-79
2023/08/03 03:46:13;;;;;;;12.98;5.90;;;;;;;15.12;100.00;99182.41;4993909;28;20032;-78
2023/08/03 03:48:38;;;;;;;13.40;5.43;;;;;;;15.12;100.00;99187.63;4976330;28;20069;-79
2023/08/03 03:51:04;;;;;;;11.77;5.60;;;;;;;15.12;100.00;99190.22;4992941;28;20034;-79
2023/08/03 03:53:29;;;;;;;13.13;5.25;;;;;;;15.03;100.00;99178.22;4993971;28;20032;-79
2023/08/03 03:55:55;;;;;;;12.98;5.57;;;;;;;15.14;100.00;99188.28;4993726;28;20526;-77
2023/08/03 03:58:20;;;;;;;12.02;4.90;;;;;;;15.15;100.00;99196.91;4993996;28;20058;-78
2023/08/03 04:00:45;;;;;;;13.07;5.00;;;;;;;14.93;100.00;99160.19;4976410;28;20038;-77
2023/08/03 04:03:11;;;;;;;11.55;4.88;;;;;;;14.90;100.00;99165.72;4993679;28;20030;-77
2023/08/03 04:05:37;;;;;;;10.82;4.90;;;;;;;15.12;100.00;99208.41;4993678;28;20109;-77
2023/08/03 04:08:03;;;;;;;9.88;5.40;;;;;;;15.06;100.00;99203.09;4993660;28;20026;-77
2023/08/03 04:10:29;;;;;;;11.23;4.75;;;;;;;15.04;100.00;99192.81;4993538;28;20031;-77
2023/08/03 04:12:54;;;;;;;11.30;4.75;;;;;;;15.12;100.00;99213.63;4993655;28;20502;-78
2023/08/03 04:15:20;;;;;;;10.07;4.70;;;;;;;15.13;100.00;99212.63;4993525;28;20538;-78
2023/08/03 04:17:46;;;;;;;8.23;4.53;;;;;;;15.14;100.00;99219.50;4993429;28;20037;-78
2023/08/03 04:20:12;;;;;;;9.00;4.50;;;;;;;15.19;100.00;99222.38;4993390;28;20030;-77
2023/08/03 04:22:38;;;;;;;7.78;3.58;;;;;;;15.14;100.00;99222.09;4993737;28;20108;-78
2023/08/03 04:25:03;;;;;;;8.25;3.20;;;;;;;15.24;100.00;99244.47;4993408;28;20050;-77
2023/08/03 04:27:29;;;;;;;7.82;2.92;;;;;;;15.24;100.00;99234.06;4993385;28;20515;-82
2023/08/03 04:29:54;;;;;;;7.57;3.33;;;;;;;15.27;100.00;99242.38;4993457;28;20027;-82
2023/08/03 04:32:20;;;;;;;6.35;3.08;;;;;;;15.30;100.00;99243.81;4993338;28;20029;-81
2023/08/03 04:34:45;;;;;;;5.88;2.50;;;;;;;15.17;100.00;99234.75;4993337;28;20030;-82
2023/08/03 04:37:10;;;;;;;4.65;2.78;;;;;;;15.32;100.00;99257.47;4991125;28;20380;-82
2023/08/03 04:39:35;;;;;;;8.85;2.88;;;;;;;15.23;100.00;99243.66;4992965;28;20052;-83
2023/08/03 04:42:01;;;;;;;6.35;2.60;;;;;;;15.20;100.00;99244.00;4993352;28;20038;-83
2023/08/03 04:44:27;;;;;;;8.57;2.97;;;;;;;15.31;100.00;99258.44;4993305;28;20057;-82
2023/08/03 04:46:52;;;;;;;5.50;2.40;;;;;;;15.39;100.00;99280.06;4993231;28;20038;-83
2023/08/03 04:49:17;;;;;;;6.53;2.67;;;;;;;15.33;100.00;99256.50;4993270;28;20042;-82
2023/08/03 04:51:42;;;;;;;6.85;2.75;;;;;;;15.33;100.00;99259.91;4992999;28;20085;-82
2023/08/03 04:54:08;;;;;;;6.65;2.90;;;;;;;15.42;100.00;99278.91;4993446;28;20487;-83
2023/08/03 04:56:33;;;;;;;7.07;2.35;;;;;;;15.37;100.00;99276.00;4992856;28;20076;-81
2023/08/03 04:58:59;;;;;;;6.78;2.63;;;;;;;15.42;100.00;99281.50;4993052;28;20065;-80
2023/08/03 05:01:24;;;;;;;4.82;2.42;;;;;;;15.34;100.00;99278.91;4994554;28;20061;-82
2023/08/03 05:03:49;;;;;;;8.32;2.90;;;;;;;15.30;100.00;99267.22;4997128;28;20419;-82
2023/08/03 05:06:14;;;;;;;4.68;2.80;;;;;;;15.37;100.00;99283.81;4997129;28;20033;-81
2023/08/03 05:08:40;;;;;;;5.78;2.40;;;;;;;15.42;100.00;99291.91;4997225;28;20590;-83
2023/08/03 05:11:05;;;;;;;6.25;2.88;;;;;;;15.41;100.00;99300.69;4996848;28;20023;-82
2023/08/03 05:13:31;;;;;;;5.82;3.00;;;;;;;15.21;100.00;99279.44;4996688;28;20468;-83
2023/08/03 05:15:58;;;;;;;5.88;2.65;;;;;;;15.29;100.00;99287.22;4997088;28;20030;-82
2023/08/03 05:18:23;;;;;;;4.07;2.03;;;;;;;15.34;100.00;99318.78;4996687;28;20464;-83
2023/08/03 05:20:48;;;;;;;7.22;2.58;;;;;;;15.20;100.00;99302.03;4997006;28;20034;-82
2023/08/03 05:23:14;;;;;;;6.60;2.28;;;;;;;15.15;100.00;99306.91;4996739;28;20022;-80
2023/08/03 05:25:42;;;;;;;5.82;1.88;;;;;;;15.02;100.00;99303.97;4978960;28;20395;-83
2023/08/03 05:28:07;;;;;;;9.50;2.30;;;;;;;14.95;100.00;99297.00;4996857;28;20072;-81
2023/08/03 05:30:33;;;;;;;7.57;2.00;;;;;;;15.14;100.00;99338.25;4995008;28;20042;-82
2023/08/03 05:33:01;;;;;;;8.07;2.05;;;;;;;15.11;100.00;99323.78;4996563;28;20049;-81
2023/08/03 05:35:26;;;;;;;7.43;2.03;;;;;;;15.17;100.00;99330.97;4996416;28;20033;-82
2023/08/03 05:37:53;;;;;;;8.20;2.10;;;;;;;15.32;100.00;99344.09;4996078;28;20034;-83
2023/08/03 05:40:19;;;;;;;6.70;1.77;;;;;;;15.41;100.00;99344.91;4996330;28;20058;-84
2023/08/03 05:42:44;;;;;;;8.55;2.28;;;;;;;15.46;100.00;99358.25;4995888;28;20034;-79
2023/08/03 05:45:34;;;;;;;7.57;2.00;;;;;;;15.58;100.00;99361.34;4996390;28;20392;-82
2023/08/03 05:48:00;;;;;;;8.45;1.90;;;;;;;15.55;100.00;99364.28;4996230;28;20080;-83
2023/08/03 05:50:25;;;;;;;5.93;1.95;;;;;;;15.62;100.00;99368.66;4996245;28;20035;-82
2023/08/03 05:52:51;;;;;;;8.68;2.15;;;;;;;15.62;100.00;99360.06;4996176;28;20037;-82
2023/08/03 05:55:17;;;;;;;8.30;2.22;;;;;;;15.77;100.00;99361.84;4996067;28;20061;-81
2023/08/03 05:57:42;;;;;;;11.95;2.08;;;;;;;15.78;100.00;99363.44;4978442;28;20038;-81
2023/08/03 06:00:28;;;;;;;11.32;2.10;;;;;;;15.54;100.00;99327.03;4996230;28;20388;-81
2023/08/03 06:02:57;;;;;;;7.80;2.05;;;;;;;15.96;100.00;99373.66;4996077;28;20037;-82
2023/08/03 06:05:43;;;;;;;7.47;1.90;;;;;;;15.97;100.00;99340.63;4995867;28;20080;-80
2023/08/03 06:08:13;;;;;;;8.55;2.10;;;;;;;16.36;100.00;99400.56;4996024;28;20026;-82
2023/08/03 06:10:39;;;;;;;8.32;1.73;;;;;;;16.29;100.00;99405.63;4989886;28;20034;-81
2023/08/03 06:30:35;;;;;;;5.93;1.65;;;;;;;16.87;100.00;99434.91;4976419;28;20459;-76
2023/08/03 06:33:23;;;;;;;10.10;1.88;;;;;;;15.43;100.00;99238.91;4975809;28;20055;-77
2023/08/03 06:36:00;;;;;;;6.60;1.60;;;;;;;15.77;100.00;99314.97;4976577;28;20113;-77
2023/08/03 06:41:47;;;;;;;6.38;1.73;;;;;;;15.14;100.00;99260.25;4974138;28;20042;-77
2023/08/03 06:44:27;;;;;;;7.38;1.88;;;;;;;15.56;100.00;99332.06;4975694;28;20027;-80
2023/08/03 06:46:52;;;;;;;3.92;1.58;;;;;;;16.21;100.00;99452.53;4975884;28;20045;-79
2023/08/03 06:52:39;;;;;;;;;;;;;;;16.29;100.00;99465.53;4973635;28;20396;-79
2023/08/03 07:15:19;;;;;;;4.97;1.30;;;;;;;16.34;100.00;99418.97;4915715;29;20158;-76
2023/08/03 07:18:06;;;;;;;5.22;1.52;;;;;;;16.89;100.00;99500.72;4915438;29;20470;-77
2023/08/03 07:20:34;;;;;;;10.60;1.65;;;;;;;16.48;100.00;99440.09;4915514;29;20028;-77
2023/08/03 07:22:59;;;;;;;5.88;1.45;;;;;;;16.40;100.00;99433.09;4915361;29;20176;-76
2023/08/03 07:36:01;;;;;;;12.40;2.03;;;;;;;16.46;100.00;99521.03;4950648;28;20473;-75
2023/08/03 07:38:41;;;;;;;9.20;2.38;;;;;;;15.29;100.00;99341.84;4974554;28;20026;-78
2023/08/03 07:41:20;;;;;;;8.05;1.85;;;;;;;15.27;100.00;99330.81;4977258;28;20030;-75
2023/08/03 07:43:47;;;;;;;9.00;2.17;;;;;;;15.53;100.00;99390.44;4993782;28;20034;-79
2023/08/03 07:46:29;;;;;;;8.50;1.92;;;;;;;16.07;100.00;99450.63;4994639;28;20029;-77
2023/08/03 07:52:36;;;;;;;8.85;2.42;;;;;;;16.87;100.00;99554.84;4994314;28;20108;-79
2023/08/03 07:55:03;;;;;;;;;;;;;;;16.92;100.00;99565.59;4994399;28;20412;-77
2023/08/03 07:58:22;;;;;;;10.38;2.20;;;;;;;16.70;100.00;99574.94;4993707;28;19913;-78
2023/08/03 08:00:47;;;;;;;6.18;1.63;;;;;;;15.85;100.00;99453.91;4896639;29;20631;-79
2023/08/03 08:03:28;;;;;;;9.07;2.05;;;;;;;16.54;100.00;99578.38;4896349;29;20115;-79
2023/08/03 08:05:53;;;;;;;8.30;1.80;;;;;;;15.89;100.00;99468.22;4865446;29;20045;-79
2023/08/03 08:08:30;;;;;;;6.78;1.83;;;;;;;15.55;100.00;99409.31;4895923;29;20021;-79
2023/08/03 08:10:55;;;;;;;8.25;1.83;;;;;;;15.76;100.00;99440.09;4895757;29;20091;-79
2023/08/03 08:13:20;;;;;;;10.27;2.30;;;;;;;16.78;100.00;99590.56;4895578;29;20025;-80
2023/08/03 08:15:46;;;;;;;7.97;1.70;;;;;;;16.75;100.00;99564.81;4895753;29;20484;-80
2023/08/03 08:18:11;;;;;;;8.10;1.83;;;;;;;16.97;100.00;99596.38;4895663;29;20046;-80
2023/08/03 08:20:36;;;;;;;6.82;1.80;;;;;;;16.99;100.00;99604.84;4895850;29;20041;-78
2023/08/03 08:23:02;;;;;;;9.48;2.20;;;;;;;16.89;100.00;99603.22;4895747;29;20055;-78
2023/08/03 08:25:32;;;;;;;9.00;2.10;;;;;;;16.78;100.00;99613.22;4895206;29;20073;-78
2023/08/03 08:27:58;;;;;;;6.72;1.80;;;;;;;16.67;100.00;99609.13;4895542;29;20047;-77
2023/08/03 08:30:23;;;;;;;7.13;1.90;;;;;;;16.61;100.00;99628.81;4895360;29;20044;-76
2023/08/03 08:32:48;;;;;;;7.45;1.65;;;;;;;16.56;100.00;99633.75;4895606;29;20036;-77
2023/08/03 08:35:14;;;;;;;4.50;1.52;;;;;;;16.52;100.00;99642.06;4895522;29;20037;-77
2023/08/03 08:37:41;;;;;;;7.75;1.98;;;;;;;16.52;100.00;99640.25;4953266;28;20042;-76
2023/08/03 08:40:11;;;;;;;6.05;1.90;;;;;;;16.39;100.00;99613.88;4993344;28;20034;-79
2023/08/03 08:42:38;;;;;;;5.53;1.75;;;;;;;16.47;100.00;99629.50;4993206;28;20018;-80
2023/08/03 08:45:06;;;;;;;5.60;1.42;;;;;;;16.55;100.00;99658.16;4992951;28;20025;-80
2023/08/03 08:47:31;;;;;;;4.93;1.55;;;;;;;16.42;100.00;99649.19;4993319;28;20037;-79
2023/08/03 08:49:57;;;;;;;7.22;1.90;;;;;;;16.44;100.00;99649.88;4993111;28;20503;-80
2023/08/03 08:52:25;;;;;;;8.02;1.65;;;;;;;16.50;100.00;99639.59;4993247;28;20069;-81
2023/08/03 08:54:51;;;;;;;6.15;1.60;;;;;;;16.86;100.00;99686.19;4992917;28;20468;-81
2023/08/03 08:57:54;;;;;;;5.93;1.73;;;;;;;17.03;100.00;99684.41;4993119;28;20026;-80
2023/08/03 09:00:20;;;;;;;6.47;1.70;;;;;;;17.06;100.00;99691.88;4993074;28;20102;-80
2023/08/03 09:02:47;;;;;;;4.72;1.40;;;;;;;16.62;100.00;99627.88;4993199;28;20018;-80
2023/08/03 09:05:13;;;;;;;6.47;1.88;;;;;;;17.15;100.00;99694.31;4993193;28;20031;-80
2023/08/03 09:07:39;;;;;;;5.20;1.30;;;;;;;17.08;100.00;99669.03;4978818;28;20027;-79
2023/08/03 09:10:05;;;;;;;3.88;1.45;;;;;;;17.47;100.00;99701.22;4974255;28;20062;-79
2023/08/03 09:12:30;;;;;;;6.18;1.60;;;;;;;17.77;100.00;99709.28;4973731;28;20037;-81
2023/08/03 09:14:57;;;;;;;6.38;1.67;;;;;;;18.27;100.00;99713.25;4973179;28;20035;-80
2023/08/03 09:17:31;;;;;;;5.72;1.67;;;;;;;18.60;100.00;99725.13;4973537;28;20027;-78
2023/08/03 09:19:57;;;;;;;6.68;1.40;;;;;;;18.59;100.00;99689.53;4973588;28;20023;-79
2023/08/03 09:22:24;;;;;;;6.45;1.52;;;;;;;19.08;100.00;99741.44;5072540;23;20090;-78
2023/08/03 09:25:07;;;;;;;4.00;1.45;;;;;;;19.26;100.00;99746.31;4952421;28;20632;-79
2023/08/03 09:27:33;;;;;;;4.63;1.42;;;;;;;19.32;100.00;99755.28;4952948;29;20051;-80
2023/08/03 09:30:03;;;;;;;6.28;1.60;;;;;;;19.36;100.00;99740.81;4954044;28;20038;-79
2023/08/03 09:32:34;;;;;;;7.07;1.83;;;;;;;19.09;100.00;99713.47;4954164;28;20027;-78
2023/08/03 10:06:13;;;;;;;6.85;1.92;;;;;;;19.49;100.00;99830.88;3402659;23;20101;-76
2023/08/03 10:09:01;;;;;;;9.68;2.40;;;;;;;19.72;100.00;99836.06;4975475;28;20042;-78
2023/08/03 10:11:32;;;;;;;8.73;2.45;;;;;;;19.71;100.00;99839.66;4976915;28;20038;-78
2023/08/03 10:14:05;;;;;;;10.98;2.90;;;;;;;19.71;100.00;99844.91;4976630;28;20031;-79
2023/08/03 10:16:36;;;;;;;8.05;2.58;;;;;;;20.16;100.00;99852.78;4958838;28;20031;-78
2023/08/03 10:19:02;;;;;;;9.95;2.35;;;;;;;20.61;97.99;99855.16;4976195;28;20027;-79
2023/08/03 10:21:33;;;;;;;10.18;2.50;;;;;;;20.87;95.74;99843.31;4976125;28;20037;-73
2023/08/03 10:24:08;;;;;;;9.90;2.55;;;;;;;21.02;98.05;99846.69;4976354;28;20424;-78
2023/08/03 10:26:34;;;;;;;10.40;2.58;;;;;;;21.02;94.66;99848.50;4976222;28;20038;-76
2023/08/03 10:28:59;;;;;;;9.18;2.42;;;;;;;21.18;95.75;99861.38;4975853;28;20380;-77
2023/08/03 10:31:25;;;;;;;9.40;2.20;;;;;;;21.19;95.46;99855.13;4951622;28;20033;-77
2023/08/03 10:33:53;;;;;;;10.10;2.08;;;;;;;21.27;95.90;99865.53;4980501;28;20110;-77
2023/08/03 10:36:30;;;;;;;8.60;2.17;;;;;;;21.67;95.38;99857.94;4956876;29;20470;-76
2023/08/03 10:39:11;;;;;;;7.18;2.13;;;;;;;21.99;93.68;99867.03;4970153;28;20046;-76
2023/08/03 10:41:49;;;;;;;9.88;2.40;;;;;;;21.74;91.57;99867.50;4977071;28;20054;-75
2023/08/03 10:44:14;;;;;;;6.97;1.85;;;;;;;21.60;91.85;99873.66;4975765;28;20027;-78
2023/08/03 10:54:30;;;;;;;7.43;1.88;;;;;;;20.89;95.98;99823.75;4959669;26;20059;-74
2023/08/03 10:57:32;;;;;;;7.65;2.03;;;;;;;20.88;94.10;99790.66;4975113;28;20184;-78
2023/08/03 11:07:06;;;;;;;5.70;1.83;;;;;;;21.10;95.27;99914.00;4975353;28;19921;-80
2023/08/03 11:16:57;;;;;;;6.18;1.70;;;;;;;20.48;97.02;99943.38;4953972;29;20054;-82
2023/08/03 11:20:09;;;;;;;7.97;2.00;;;;;;;20.33;100.00;99940.72;4953776;29;20043;-80
2023/08/03 11:22:52;;;;;;;8.57;2.28;;;;;;;19.43;100.00;99815.84;4953629;29;20481;-82
2023/08/03 11:25:19;;;;;;;9.32;2.50;;;;;;;19.36;100.00;99846.34;4937832;29;20066;-78
2023/08/03 11:27:51;;;;;;;8.40;2.33;;;;;;;19.99;100.00;99954.34;4953783;29;20114;-81
2023/08/03 11:30:44;;;;;;;8.73;2.53;;;;;;;19.72;100.00;99904.16;4953662;29;20071;-77
2023/08/03 11:36:54;;;;;;;5.32;1.70;;;;;;;18.88;100.00;99821.41;4953722;29;20073;-80
2023/08/03 11:39:34;;;;;;;10.63;2.55;;;;;;;19.37;100.00;99996.38;4953404;29;20027;-77
2023/08/03 11:42:40;;;;;;;5.90;2.03;;;;;;;18.62;100.00;100005.56;4941755;29;20031;-76
2023/08/03 11:51:50;;;;;;;5.00;1.30;;;;;;;16.74;100.00;99964.69;4955522;29;20083;-78
2023/08/03 12:08:52;;;;;;;6.18;1.92;;;;;;;16.34;100.00;99989.56;4955188;29;20503;-75
2023/08/03 12:11:20;;;;;;;6.82;2.10;;;;;;;15.84;100.00;99924.28;4954159;28;20039;-76
2023/08/03 12:14:01;;;;;;;7.00;2.53;;;;;;;16.35;100.00;100004.22;4954672;29;20031;-77
2023/08/03 12:16:36;;;;;;;8.13;2.22;;;;;;;16.40;100.00;100010.75;4954924;29;20477;-75
2023/08/03 12:19:07;;;;;;;7.43;2.35;;;;;;;16.03;100.00;99955.34;4968856;28;20047;-77
2023/08/03 12:21:33;;;;;;;9.65;2.42;;;;;;;17.02;100.00;100107.91;4937570;29;20437;-77
2023/08/03 12:23:58;;;;;;;5.25;1.88;;;;;;;16.80;100.00;100085.78;4954935;29;20156;-77
2023/08/03 12:26:24;;;;;;;5.03;1.58;;;;;;;16.98;100.00;100123.03;4954782;29;20034;-76
2023/08/03 12:28:52;;;;;;;7.05;2.00;;;;;;;17.00;100.00;100133.31;4954677;29;20023;-79
2023/08/03 12:31:17;;;;;;;5.25;1.80;;;;;;;17.05;100.00;100126.69;4954854;29;20027;-80
2023/08/03 12:33:42;;;;;;;7.80;2.00;;;;;;;17.22;100.00;100145.03;4937285;29;20131;-80
2023/08/03 12:36:08;;;;;;;5.97;1.90;;;;;;;17.44;100.00;100153.09;4954696;29;20019;-80
2023/08/03 12:38:33;;;;;;;8.07;2.30;;;;;;;17.55;100.00;100159.03;4954657;29;20027;-80
2023/08/03 12:40:58;;;;;;;5.85;1.90;;;;;;;17.58;100.00;100159.50;4954520;29;20046;-81
2023/08/03 12:43:24;;;;;;;7.97;2.05;;;;;;;17.63;100.00;100177.34;4954497;29;20035;-81
2023/08/03 12:45:49;;;;;;;9.63;2.15;;;;;;;17.66;100.00;100185.66;4954808;29;20034;-81
2023/08/03 12:48:15;;;;;;;6.70;2.30;;;;;;;17.78;100.00;100187.03;4954343;29;20154;-80
2023/08/03 12:50:41;;;;;;;7.65;1.90;;;;;;;17.95;100.00;100190.50;4954427;29;20058;-81
2023/08/03 12:53:07;;;;;;;6.60;1.95;;;;;;;17.89;100.00;100203.38;4954204;28;20039;-80
2023/08/03 12:55:32;;;;;;;5.32;2.08;;;;;;;17.78;100.00;100197.47;4954055;29;20028;-80
2023/08/03 12:57:57;;;;;;;5.75;2.58;;;;;;;17.64;100.00;100203.28;4954455;29;20042;-80
2023/08/03 13:00:27;;;;;;;7.28;2.75;;;;;;;17.24;100.00;100192.66;4954441;29;20031;-79
2023/08/03 13:02:52;;;;;;;6.70;2.28;;;;;;;16.88;100.00;100190.13;4954181;29;20019;-78
2023/08/03 13:05:18;;;;;;;7.90;2.63;;;;;;;17.00;100.00;100228.03;4954332;29;20042;-79
2023/08/03 13:07:43;;;;;;;6.55;2.35;;;;;;;16.92;100.00;100239.25;4968386;28;20094;-79
2023/08/03 13:10:09;;;;;;;7.78;2.10;;;;;;;16.85;100.00;100248.66;4954400;29;20039;-79
2023/08/03 13:12:34;;;;;;;6.25;2.22;;;;;;;16.57;100.00;100228.81;4954379;29;20477;-79
2023/08/03 13:15:01;;;;;;;6.65;2.28;;;;;;;16.23;100.00;100226.06;4954323;29;20515;-79
2023/08/03 13:17:26;;;;;;;7.70;2.28;;;;;;;16.31;100.00;100252.19;4953816;29;20039;-79
2023/08/03 13:19:52;;;;;;;7.78;2.45;;;;;;;16.33;100.00;100271.94;4954083;29;20032;-79
2023/08/03 13:22:17;;;;;;;5.85;2.15;;;;;;;16.32;100.00;100266.84;4938093;29;20396;-80
2023/08/03 13:24:42;;;;;;;8.63;2.83;;;;;;;16.15;100.00;100229.41;4957994;29;20033;-80
2023/08/03 13:27:13;;;;;;;9.07;3.03;;;;;;;16.12;100.00;100216.66;4958182;29;20031;-80
2023/08/03 13:29:42;;;;;;;9.10;3.88;;;;;;;16.58;100.00;100278.19;4957883;29;20027;-80
2023/08/03 13:32:08;;;;;;;10.45;3.47;;;;;;;16.68;100.00;100277.31;4957827;29;20030;-80
2023/08/03 13:34:33;;;;;;;13.68;4.10;;;;;;;16.61;100.00;100241.38;4956308;29;20036;-81
2023/08/03 13:36:58;;;;;;;12.75;4.43;;;;;;;16.85;100.00;100235.59;4957488;29;20093;-79
2023/08/03 13:39:24;;;;;;;12.63;3.75;;;;;;;17.40;100.00;100260.56;4969621;28;20484;-78
2023/08/03 13:41:49;;;;;;;10.68;3.83;;;;;;;17.88;100.00;100290.56;4984941;28;20503;-74